createdAt,value
2023-05-14T00:00:42.968Z,100412.22
2023-05-14T00:03:44.783Z,100411.19
2023-05-14T00:06:46.704Z,100412.38
2023-05-14T00:09:48.410Z,100410.50
2023-05-14T00:12:51.207Z,100404.59
2023-05-14T00:15:54.321Z,100404.59
2023-05-14T00:18:56.239Z,100397.72
2023-05-14T00:21:58.018Z,100402.88
2023-05-14T00:24:59.815Z,100398.25
2023-05-14T00:28:01.573Z,100394.91
2023-05-14T00:31:05.359Z,100396.50
2023-05-14T00:34:07.084Z,100384.69
2023-05-14T00:37:08.902Z,100381.28
2023-05-14T00:40:12.927Z,100380.91
2023-05-14T00:43:14.877Z,100375.81
2023-05-14T00:46:17.978Z,100380.44
2023-05-14T00:49:20.050Z,100372.25
2023-05-14T00:52:22.241Z,100384.56
2023-05-14T00:55:24.093Z,100380.44
2023-05-14T00:58:26.284Z,100380.06
2023-05-14T01:01:30.036Z,100366.91
2023-05-14T01:04:32.345Z,100368.22
2023-05-14T01:07:40.911Z,100363.69
2023-05-14T01:10:49.830Z,100359.44
2023-05-14T01:14:05.012Z,100362.72
2023-05-14T01:17:11.078Z,100368.09
2023-05-14T01:20:13.195Z,100367.38
2023-05-14T01:23:16.168Z,100368.00
2023-05-14T01:26:18.579Z,100363.59
2023-05-14T01:29:24.033Z,100366.16
2023-05-14T01:32:28.370Z,100368.47
2023-05-14T01:35:30.706Z,100367.25
2023-05-14T01:38:35.790Z,100373.53
2023-05-14T01:41:39.321Z,100377.44
2023-05-14T01:44:41.830Z,100365.66
2023-05-14T01:47:43.546Z,100368.13
2023-05-14T01:50:45.607Z,100360.94
2023-05-14T01:53:48.901Z,100368.78
2023-05-14T01:56:51.157Z,100360.09
2023-05-14T01:59:52.781Z,100363.50
2023-05-14T02:02:54.462Z,100359.81
2023-05-14T02:05:58.350Z,100366.69
2023-05-14T02:09:01.432Z,100361.28
2023-05-14T02:12:03.283Z,100364.97
2023-05-14T02:15:06.091Z,100359.16
2023-05-14T02:18:07.877Z,100357.03
2023-05-14T02:21:09.607Z,100362.81
2023-05-14T02:24:12.703Z,100357.00
2023-05-14T02:27:14.392Z,100355.53
2023-05-14T02:30:16.492Z,100352.06
2023-05-14T02:33:18.930Z,100345.59
2023-05-14T02:36:20.814Z,100352.91
2023-05-14T02:39:24.176Z,100354.47
2023-05-14T02:42:25.907Z,100350.47
2023-05-14T02:45:27.716Z,100355.09
2023-05-14T02:48:29.424Z,100352.84
2023-05-14T02:51:31.316Z,100344.25
2023-05-14T02:54:34.526Z,100343.50
2023-05-14T02:57:36.350Z,100343.81
2023-05-14T03:00:38.048Z,100341.81
2023-05-14T03:03:40.529Z,100344.13
2023-05-14T03:06:42.714Z,100349.38
2023-05-14T03:09:45.745Z,100350.59
2023-05-14T03:12:47.642Z,100348.50
2023-05-14T03:15:49.456Z,100347.13
2023-05-14T03:18:51.179Z,100349.75
2023-05-14T03:21:53.020Z,100349.59
2023-05-14T03:24:56.006Z,100350.06
2023-05-14T03:27:57.834Z,100351.94
2023-05-14T03:30:59.780Z,100342.81
2023-05-14T03:34:01.541Z,100350.38
2023-05-14T03:37:03.789Z,100348.66
2023-05-14T03:40:08.267Z,100348.06
2023-05-14T03:43:11.700Z,100349.16
2023-05-14T03:46:13.409Z,100348.53
2023-05-14T03:49:15.596Z,100350.72
2023-05-14T03:52:17.352Z,100351.78
2023-05-14T03:55:21.438Z,100348.66
2023-05-14T03:58:23.132Z,100353.09
2023-05-14T04:01:24.953Z,100347.38
2023-05-14T04:04:26.700Z,100346.25
2023-05-14T04:07:28.364Z,100347.09
2023-05-14T04:10:32.118Z,100353.53
2023-05-14T04:13:35.466Z,100348.91
2023-05-14T04:16:37.548Z,100349.31
2023-05-14T04:19:40.454Z,100351.59
2023-05-14T04:22:42.153Z,100342.88
2023-05-14T04:25:45.380Z,100338.97
2023-05-14T04:28:47.025Z,100347.50
2023-05-14T04:31:49.553Z,100346.72
2023-05-14T04:34:51.316Z,100348.06
2023-05-14T04:37:53.070Z,100353.06
2023-05-14T04:40:56.932Z,100356.91
2023-05-14T04:44:01.844Z,100351.66
2023-05-14T04:47:03.568Z,100348.50
2023-05-14T04:50:06.549Z,100351.53
2023-05-14T04:53:08.247Z,100359.47
2023-05-14T04:56:11.305Z,100359.16
2023-05-14T04:59:13.016Z,100356.91
2023-05-14T05:02:14.834Z,100365.94
2023-05-14T05:05:16.448Z,100365.56
2023-05-14T05:08:18.264Z,100362.94
2023-05-14T05:11:21.380Z,100357.25
2023-05-14T05:14:23.054Z,100356.59
2023-05-14T05:17:24.933Z,100354.16
2023-05-14T05:20:28.342Z,100354.56
2023-05-14T05:23:30.043Z,100360.25
2023-05-14T05:26:33.257Z,100361.53
2023-05-14T05:29:35.374Z,100357.31
2023-05-14T05:32:37.455Z,100368.31
2023-05-14T05:35:39.324Z,100364.50
2023-05-14T05:38:40.924Z,100368.47
2023-05-14T05:41:44.337Z,100369.75
2023-05-14T05:44:45.977Z,100363.94
2023-05-14T05:47:47.785Z,100365.75
2023-05-14T05:50:50.258Z,100357.34
2023-05-14T05:53:52.038Z,100360.63
2023-05-14T05:56:55.523Z,100354.28
2023-05-14T05:59:58.025Z,100353.63
2023-05-14T06:02:59.837Z,100356.44
2023-05-14T06:06:01.668Z,100360.41
2023-05-14T06:09:04.699Z,100355.38
2023-05-14T06:12:08.831Z,100360.38
2023-05-14T06:15:12.095Z,100368.94
2023-05-14T06:18:13.789Z,100365.25
2023-05-14T06:21:15.685Z,100352.28
2023-05-14T06:24:17.382Z,100364.09
2023-05-14T06:27:20.424Z,100360.69
2023-05-14T06:30:22.480Z,100365.06
2023-05-14T06:33:30.717Z,100355.72
2023-05-14T06:36:32.533Z,100363.13
2023-05-14T06:39:34.274Z,100355.47
2023-05-14T06:42:37.391Z,100355.41
2023-05-14T06:45:39.971Z,100355.38
2023-05-14T06:48:41.751Z,100356.72
2023-05-14T06:51:43.554Z,100356.47
2023-05-14T06:54:45.448Z,100350.44
2023-05-14T06:57:48.625Z,100353.38
2023-05-14T07:00:50.340Z,100349.81
2023-05-14T07:03:52.036Z,100349.91
2023-05-14T07:06:53.726Z,100346.16
2023-05-14T07:09:55.464Z,100335.56
2023-05-14T07:12:58.640Z,100341.09
2023-05-14T07:16:00.486Z,100338.94
2023-05-14T07:19:02.176Z,100342.47
2023-05-14T07:22:04.321Z,100335.69
2023-05-14T07:25:06.672Z,100334.69
2023-05-14T07:28:09.887Z,100332.38
2023-05-14T07:31:11.610Z,100333.72
2023-05-14T07:34:13.556Z,100326.47
2023-05-14T07:37:15.262Z,100323.06
2023-05-14T07:40:17.564Z,100315.13
2023-05-14T07:43:20.666Z,100325.97
2023-05-14T07:46:23.806Z,100318.94
2023-05-14T07:49:25.555Z,100320.44
2023-05-14T07:52:27.365Z,100308.72
2023-05-14T07:55:29.220Z,100305.19
2023-05-14T07:58:32.519Z,100303.56
2023-05-14T08:01:34.344Z,100295.75
2023-05-14T08:04:36.325Z,100290.53
2023-05-14T08:07:38.283Z,100308.09
2023-05-14T08:10:40.116Z,100303.97
2023-05-14T08:13:43.254Z,100296.19
2023-05-14T08:16:45.160Z,100304.69
2023-05-14T08:19:46.972Z,100297.19
2023-05-14T08:22:49.154Z,100293.38
2023-05-14T08:25:51.024Z,100297.34
2023-05-14T08:28:54.761Z,100292.38
2023-05-14T08:31:57.287Z,100286.44
2023-05-14T08:34:59.564Z,100290.63
2023-05-14T08:38:01.255Z,100291.22
2023-05-14T08:41:06.190Z,100284.41
2023-05-14T08:44:13.130Z,100282.56
2023-05-14T08:47:16.288Z,100281.19
2023-05-14T08:50:22.415Z,100276.75
2023-05-14T08:53:24.998Z,100283.16
2023-05-14T08:56:27.031Z,100283.63
2023-05-14T08:59:30.318Z,100278.91
2023-05-14T09:02:32.555Z,100279.88
2023-05-14T09:05:34.731Z,100279.94
2023-05-14T09:08:36.638Z,100273.00
2023-05-14T09:11:41.390Z,100281.28
2023-05-14T09:14:44.644Z,100269.09
2023-05-14T09:17:47.964Z,100262.03
2023-05-14T09:20:49.924Z,100272.41
2023-05-14T09:23:55.153Z,100270.56
2023-05-14T09:26:58.181Z,100270.41
2023-05-14T09:30:12.633Z,100274.19
2023-05-14T09:33:26.517Z,100274.97
2023-05-14T09:36:28.180Z,100261.53
2023-05-14T09:39:30.590Z,100272.47
2023-05-14T09:42:32.789Z,100274.31
2023-05-14T09:45:36.410Z,100265.25
2023-05-14T09:48:38.386Z,100271.00
2023-05-14T09:51:40.217Z,100273.91
2023-05-14T09:54:41.978Z,100269.56
2023-05-14T09:58:04.243Z,100255.72
2023-05-14T10:01:08.309Z,100263.25
2023-05-14T10:04:11.825Z,100258.25
2023-05-14T10:07:14.415Z,100272.75
2023-05-14T10:10:19.531Z,100260.44
2023-05-14T10:13:27.792Z,100269.41
2023-05-14T10:16:34.913Z,100259.31
2023-05-14T10:19:40.322Z,100261.16
2023-05-14T10:22:42.242Z,100267.28
2023-05-14T10:25:44.376Z,100260.81
2023-05-14T10:28:46.766Z,100277.25
2023-05-14T10:31:51.672Z,100270.00
2023-05-14T10:34:53.882Z,100262.88
2023-05-14T10:37:56.690Z,100261.59
2023-05-14T10:41:02.562Z,100256.72
2023-05-14T10:44:09.464Z,100258.38
2023-05-14T10:47:12.748Z,100258.31
2023-05-14T10:50:16.096Z,100250.88
2023-05-14T10:53:18.519Z,100244.63
2023-05-14T10:56:21.505Z,100252.22
2023-05-14T10:59:27.162Z,100246.19
2023-05-14T11:02:32.647Z,100258.88
2023-05-14T11:05:37.189Z,100251.53
2023-05-14T11:08:39.838Z,100252.25
2023-05-14T11:11:41.957Z,100236.88
2023-05-14T11:14:43.919Z,100237.31
2023-05-14T11:17:48.435Z,100233.00
2023-05-14T11:20:50.014Z,100237.38
2023-05-14T11:23:51.651Z,100234.31
2023-05-14T11:26:55.693Z,100237.19
2023-05-14T11:29:58.574Z,100235.00
2023-05-14T11:33:02.309Z,100235.50
2023-05-14T11:36:04.936Z,100235.72
2023-05-14T11:39:07.889Z,100236.66
2023-05-14T11:42:16.739Z,100235.25
2023-05-14T11:45:26.330Z,100229.34
2023-05-14T11:48:29.296Z,100226.25
2023-05-14T11:51:32.026Z,100227.38
2023-05-14T11:54:34.786Z,100226.16
2023-05-14T11:57:36.760Z,100225.53
2023-05-14T12:00:38.603Z,100220.84
2023-05-14T12:03:42.412Z,100221.31
2023-05-14T12:06:44.283Z,100217.75
2023-05-14T12:09:49.682Z,100217.44
2023-05-14T12:12:51.643Z,100222.91
2023-05-14T12:15:56.155Z,100209.53
2023-05-14T12:19:01.764Z,100211.59
2023-05-14T12:22:03.595Z,100203.09
2023-05-14T12:25:12.312Z,100202.91
2023-05-14T12:28:15.888Z,100196.13
2023-05-14T12:31:17.749Z,100193.69
2023-05-14T12:34:20.897Z,100186.31
2023-05-14T12:37:22.675Z,100190.19
2023-05-14T12:40:24.694Z,100185.19
2023-05-14T12:43:31.433Z,100187.22
2023-05-14T12:46:34.326Z,100185.31
2023-05-14T12:49:37.627Z,100170.91
2023-05-14T12:52:40.104Z,100171.69
2023-05-14T12:55:42.058Z,100170.56
2023-05-14T12:58:44.016Z,100179.81
2023-05-14T13:01:45.698Z,100170.50
2023-05-14T13:04:48.741Z,100166.72
2023-05-14T13:07:52.823Z,100165.97
2023-05-14T13:10:55.536Z,100155.00
2023-05-14T13:13:57.794Z,100152.84
2023-05-14T13:16:59.682Z,100153.75
2023-05-14T13:20:02.982Z,100150.50
2023-05-14T13:23:04.702Z,100150.38
2023-05-14T13:26:06.966Z,100137.38
2023-05-14T13:29:08.707Z,100127.06
2023-05-14T13:32:10.584Z,100134.31
2023-05-14T13:35:13.876Z,100126.50
2023-05-14T13:38:15.628Z,100127.56
2023-05-14T13:41:17.306Z,100117.66
2023-05-14T13:44:18.983Z,100119.91
2023-05-14T13:47:20.679Z,100108.84
2023-05-14T13:50:23.817Z,100112.03
2023-05-14T13:53:26.302Z,100101.31
2023-05-14T13:56:27.987Z,100099.47
2023-05-14T13:59:29.704Z,100089.97
2023-05-14T14:02:33.540Z,100095.78
2023-05-14T14:05:37.578Z,100076.19
2023-05-14T14:08:39.281Z,100074.28
2023-05-14T14:11:41.260Z,100074.91
2023-05-14T14:14:42.954Z,100060.88
2023-05-14T14:17:45.008Z,100054.56
2023-05-14T14:20:48.241Z,100051.03
2023-05-14T14:23:49.928Z,100050.81
2023-05-14T14:26:51.674Z,100043.75
2023-05-14T14:29:53.416Z,100048.31
2023-05-14T14:32:55.308Z,100037.19
2023-05-14T14:35:58.421Z,100038.63
2023-05-14T14:39:00.366Z,100034.03
2023-05-14T14:42:02.103Z,100033.44
2023-05-14T14:45:04.502Z,100041.56
2023-05-14T14:48:26.923Z,100041.84
2023-05-14T14:51:30.369Z,100039.69
2023-05-14T14:54:32.049Z,100039.56
2023-05-14T14:57:33.909Z,100035.34
2023-05-14T15:00:35.666Z,100040.66
2023-05-14T15:03:37.494Z,100029.41
2023-05-14T15:06:40.869Z,100029.47
2023-05-14T15:09:42.811Z,100031.44
2023-05-14T15:12:45.094Z,100031.88
2023-05-14T15:15:47.338Z,100032.34
2023-05-14T15:18:49.105Z,100025.91
2023-05-14T15:21:52.675Z,100026.09
2023-05-14T15:24:54.474Z,100022.59
2023-05-14T15:27:56.268Z,100022.22
2023-05-14T15:30:58.159Z,100018.09
2023-05-14T15:34:00.949Z,100019.66
2023-05-14T15:37:04.114Z,100022.06
2023-05-14T15:40:10.455Z,100025.22
2023-05-14T15:43:12.385Z,100019.03
2023-05-14T15:46:14.141Z,100018.97
2023-05-14T15:49:15.840Z,100025.03
2023-05-14T15:52:18.898Z,100022.00
2023-05-14T15:55:20.892Z,100012.72
2023-05-14T15:58:22.652Z,100016.31
2023-05-14T16:01:24.507Z,100012.94
2023-05-14T16:04:26.292Z,100001.13
2023-05-14T16:07:49.827Z,99997.28
2023-05-14T16:10:51.505Z,100002.31
2023-05-14T16:13:53.281Z,100005.31
2023-05-14T16:16:55.373Z,99995.59
2023-05-14T16:19:57.283Z,99994.94
2023-05-14T16:23:00.341Z,99997.63
2023-05-14T16:26:02.144Z,99996.00
2023-05-14T16:29:04.214Z,99988.97
2023-05-14T16:32:06.290Z,99977.16
2023-05-14T16:35:08.957Z,99985.47
2023-05-14T16:38:12.238Z,99982.97
2023-05-14T16:41:15.063Z,99980.31
2023-05-14T16:44:16.802Z,99978.72
2023-05-14T16:47:18.541Z,99982.75
2023-05-14T16:50:20.983Z,99982.63
2023-05-14T16:53:24.136Z,99985.94
2023-05-14T16:56:26.536Z,99980.28
2023-05-14T16:59:28.588Z,99976.88
2023-05-14T17:02:30.530Z,99979.28
2023-05-14T17:05:32.274Z,99978.88
2023-05-14T17:08:35.681Z,99978.72
2023-05-14T17:11:37.530Z,99985.78
2023-05-14T17:14:39.191Z,99982.34
2023-05-14T17:17:40.958Z,99982.41
2023-05-14T17:20:42.623Z,99984.72
2023-05-14T17:23:46.021Z,99986.88
2023-05-14T17:26:47.737Z,99986.63
2023-05-14T17:29:51.204Z,99985.06
2023-05-14T17:32:52.918Z,99980.13
2023-05-14T17:35:54.646Z,99980.03
2023-05-14T17:38:58.235Z,99979.34
2023-05-14T17:42:00.295Z,99981.44
2023-05-14T17:45:02.056Z,99990.59
2023-05-14T17:48:04.094Z,99992.91
2023-05-14T17:51:05.853Z,99986.78
2023-05-14T17:54:08.924Z,99995.44
2023-05-14T17:57:10.711Z,100001.69
2023-05-14T18:00:13.189Z,100001.91
2023-05-14T18:03:15.092Z,100006.66
2023-05-14T18:06:16.971Z,100009.38
2023-05-14T18:09:20.158Z,100012.78
2023-05-14T18:12:21.879Z,100022.63
2023-05-14T18:15:25.668Z,100019.75
2023-05-14T18:18:27.866Z,100016.19
2023-05-14T18:21:29.910Z,100030.75
2023-05-14T18:24:32.897Z,100036.56
2023-05-14T18:27:35.085Z,100041.75
2023-05-14T18:30:36.853Z,100042.00
2023-05-14T18:33:38.701Z,100041.50
2023-05-14T18:36:41.006Z,100038.31
2023-05-14T18:39:43.949Z,100031.13
2023-05-14T18:42:45.654Z,100040.47
2023-05-14T18:45:48.215Z,100037.28
2023-05-14T18:48:50.471Z,100045.84
2023-05-14T18:51:52.232Z,100043.97
2023-05-14T18:54:55.460Z,100050.53
2023-05-14T18:57:57.537Z,100050.69
2023-05-14T19:00:59.306Z,100053.28
2023-05-14T19:04:03.133Z,100050.41
2023-05-14T19:07:06.764Z,100055.00
2023-05-14T19:10:11.020Z,100060.59
2023-05-14T19:13:12.798Z,100051.34
2023-05-14T19:16:14.712Z,100061.47
2023-05-14T19:19:16.611Z,100075.31
2023-05-14T19:22:19.437Z,100072.81
2023-05-14T19:25:22.422Z,100074.59
2023-05-14T19:28:24.305Z,100073.22
2023-05-14T19:31:26.648Z,100066.38
2023-05-14T19:34:28.422Z,100075.50
2023-05-14T19:37:30.419Z,100081.28
2023-05-14T19:40:33.615Z,100079.16
2023-05-14T19:43:35.489Z,100071.81
2023-05-14T19:46:37.169Z,100073.44
2023-05-14T19:49:39.059Z,100071.44
2023-05-14T19:52:40.726Z,100073.34
2023-05-14T19:55:44.105Z,100071.38
2023-05-14T19:58:45.968Z,100070.94
2023-05-14T20:01:47.917Z,100068.94
2023-05-14T20:04:49.784Z,100071.88
2023-05-14T20:07:51.540Z,100067.97
2023-05-14T20:10:54.623Z,100076.75
2023-05-14T20:13:56.386Z,100074.31
2023-05-14T20:16:59.863Z,100068.22
2023-05-14T20:20:01.710Z,100068.72
2023-05-14T20:23:03.585Z,100064.31
2023-05-14T20:26:06.688Z,100080.69
2023-05-14T20:29:10.888Z,100088.03
2023-05-14T20:32:13.111Z,100074.69
2023-05-14T20:35:14.970Z,100076.63
2023-05-14T20:38:18.334Z,100066.16
2023-05-14T20:41:22.910Z,100071.59
2023-05-14T20:44:24.873Z,100056.75
2023-05-14T20:47:28.800Z,100065.00
2023-05-14T20:50:30.760Z,100059.59
2023-05-14T20:53:33.266Z,100054.16
2023-05-14T20:56:36.545Z,100049.06
2023-05-14T20:59:38.595Z,100047.41
2023-05-14T21:02:40.610Z,100056.41
2023-05-14T21:05:43.767Z,100047.06
2023-05-14T21:08:45.559Z,100044.75
2023-05-14T21:11:49.142Z,100046.16
2023-05-14T21:14:50.884Z,100045.31
2023-05-14T21:17:52.673Z,100044.63
2023-05-14T21:20:54.428Z,100038.25
2023-05-14T21:23:56.195Z,100040.38
2023-05-14T21:27:00.547Z,100030.59
2023-05-14T21:30:02.353Z,100031.31
2023-05-14T21:33:04.168Z,100022.63
2023-05-14T21:36:07.220Z,100026.31
2023-05-14T21:39:10.402Z,100014.25
2023-05-14T21:42:13.712Z,100025.88
2023-05-14T21:45:15.730Z,100009.88
2023-05-14T21:48:17.807Z,100025.38
2023-05-14T21:51:19.590Z,100020.66
2023-05-14T21:54:21.512Z,100020.84
2023-05-14T21:57:26.182Z,100011.00
2023-05-14T22:00:29.101Z,100008.22
2023-05-14T22:03:30.812Z,100013.38
2023-05-14T22:06:32.548Z,100007.22
2023-05-14T22:09:34.606Z,100011.63
2023-05-14T22:12:37.635Z,100012.94
2023-05-14T22:15:39.554Z,100003.91
2023-05-14T22:18:41.624Z,100004.59
2023-05-14T22:21:43.319Z,100005.44
2023-05-14T22:24:45.056Z,99997.88
2023-05-14T22:27:48.132Z,99993.94
2023-05-14T22:30:49.912Z,99991.91
2023-05-14T22:33:52.084Z,99992.13
2023-05-14T22:36:53.870Z,99992.31
2023-05-14T22:39:55.654Z,99979.03
2023-05-14T22:42:58.600Z,99974.22
2023-05-14T22:46:00.466Z,99973.44
2023-05-14T22:49:02.226Z,99976.81
2023-05-14T22:52:04.422Z,99970.34
2023-05-14T22:55:07.384Z,99967.59
2023-05-14T22:58:10.616Z,99972.06
2023-05-14T23:01:12.380Z,99971.66
2023-05-14T23:04:14.207Z,99965.91
2023-05-14T23:07:16.817Z,99969.19
2023-05-14T23:10:18.590Z,99972.22
2023-05-14T23:13:21.667Z,99960.88
2023-05-14T23:16:23.340Z,99966.31
2023-05-14T23:19:26.430Z,99970.78
2023-05-14T23:22:28.133Z,99971.31
2023-05-14T23:25:29.890Z,99969.75
2023-05-14T23:28:32.955Z,99969.22
2023-05-14T23:31:35.315Z,99964.78
2023-05-14T23:34:37.142Z,99967.41
2023-05-14T23:37:42.588Z,99969.91
2023-05-14T23:40:44.306Z,99964.13
2023-05-14T23:43:48.785Z,99974.50
2023-05-14T23:46:50.791Z,99974.25
2023-05-14T23:49:52.736Z,99975.94
2023-05-14T23:52:55.024Z,99973.19
2023-05-14T23:55:56.905Z,99968.06
2023-05-14T23:59:00.055Z,99970.28
